createdAt,value
2022-10-29T00:00:53.557Z,102316.28
2022-10-29T00:03:21.206Z,102316.47
2022-10-29T00:06:05.804Z,102296.50
2022-10-29T00:08:34.933Z,102304.41
2022-10-29T00:11:14.192Z,102300.13
2022-10-29T00:13:41.694Z,102294.09
2022-10-29T00:16:20.444Z,102294.28
2022-10-29T00:18:46.957Z,102290.03
2022-10-29T00:21:16.898Z,102288.47
2022-10-29T00:23:43.515Z,102294.66
2022-10-29T00:26:10.673Z,102289.56
2022-10-29T00:28:37.469Z,102291.38
2022-10-29T00:31:05.466Z,102285.38
2022-10-29T00:33:32.502Z,102290.72
2022-10-29T00:36:01.391Z,102289.09
2022-10-29T00:38:28.059Z,102300.41
2022-10-29T00:40:55.224Z,102281.25
2022-10-29T00:43:23.426Z,102283.78
2022-10-29T00:45:57.428Z,102281.31
2022-10-29T00:48:27.066Z,102276.97
2022-10-29T00:50:55.757Z,102268.38
2022-10-29T00:53:27.040Z,102268.50
2022-10-29T00:55:53.516Z,102266.00
2022-10-29T00:58:21.806Z,102262.53
2022-10-29T01:00:48.201Z,102261.63
2022-10-29T01:03:14.694Z,102260.69
2022-10-29T01:05:41.893Z,102259.78
2022-10-29T01:08:08.666Z,102269.38
2022-10-29T01:10:37.738Z,102272.06
2022-10-29T01:13:30.013Z,102266.13
2022-10-29T01:16:00.472Z,102260.09
2022-10-29T01:18:38.505Z,102247.13
2022-10-29T01:21:39.850Z,102250.81
2022-10-29T01:24:36.717Z,102260.53
2022-10-29T01:27:40.380Z,102265.13
2022-10-29T01:30:34.788Z,102254.81
2022-10-29T01:33:19.520Z,102246.25
2022-10-29T01:35:48.919Z,102235.03
2022-10-29T01:38:42.124Z,102231.72
2022-10-29T01:41:21.591Z,102232.69
2022-10-29T01:43:55.445Z,102219.75
2022-10-29T01:46:29.083Z,102229.56
2022-10-29T01:49:02.391Z,102230.44
2022-10-29T01:51:31.124Z,102223.47
2022-10-29T01:54:00.294Z,102215.69
2022-10-29T01:56:27.309Z,102218.31
2022-10-29T01:58:58.341Z,102215.75
2022-10-29T02:01:47.790Z,102210.66
2022-10-29T02:04:28.192Z,102204.59
2022-10-29T02:07:06.821Z,102212.53
2022-10-29T02:09:49.481Z,102210.97
2022-10-29T02:12:23.157Z,102216.25
2022-10-29T02:14:59.101Z,102207.56
2022-10-29T02:17:25.662Z,102203.19
2022-10-29T02:19:52.229Z,102197.94
2022-10-29T02:22:18.661Z,102208.41
2022-10-29T02:24:45.060Z,102215.41
2022-10-29T02:27:11.476Z,102200.63
2022-10-29T02:29:37.880Z,102209.25
2022-10-29T02:32:04.598Z,102207.56
2022-10-29T02:34:31.004Z,102208.34
2022-10-29T02:36:57.468Z,102220.50
2022-10-29T02:39:23.932Z,102211.84
2022-10-29T02:41:50.331Z,102221.34
2022-10-29T02:44:16.770Z,102209.19
2022-10-29T02:46:43.196Z,102204.81
2022-10-29T02:49:09.589Z,102194.41
2022-10-29T02:51:35.997Z,102196.13
2022-10-29T02:54:02.406Z,102179.63
2022-10-29T02:56:28.848Z,102180.47
2022-10-29T02:58:55.354Z,102183.94
2022-10-29T03:01:21.954Z,102175.28
2022-10-29T03:03:48.466Z,102180.47
2022-10-29T03:06:16.401Z,102167.41
2022-10-29T03:08:43.148Z,102175.16
2022-10-29T03:11:10.110Z,102169.81
2022-10-29T03:16:08.098Z,102165.41
2022-10-29T03:18:34.537Z,102173.22
2022-10-29T03:21:01.005Z,102172.31
2022-10-29T03:23:27.525Z,102164.41
2022-10-29T03:25:56.059Z,102165.28
2022-10-29T03:28:24.553Z,102164.59
2022-10-29T03:30:51.061Z,102167.28
2022-10-29T03:33:17.508Z,102180.28
2022-10-29T03:35:43.948Z,102178.38
2022-10-29T03:38:10.431Z,102174.00
2022-10-29T03:40:36.817Z,102184.41
2022-10-29T03:43:03.281Z,102189.63
2022-10-29T03:45:29.873Z,102184.34
2022-10-29T03:47:57.623Z,102183.41
2022-10-29T03:50:24.470Z,102183.38
2022-10-29T03:52:50.947Z,102189.50
2022-10-29T03:55:17.412Z,102186.81
2022-10-29T03:57:43.818Z,102180.75
2022-10-29T04:00:10.631Z,102178.06
2022-10-29T04:02:37.156Z,102172.00
2022-10-29T04:05:03.804Z,102173.75
2022-10-29T04:07:30.243Z,102176.38
2022-10-29T04:09:56.642Z,102175.56
2022-10-29T04:12:23.069Z,102177.28
2022-10-29T04:17:20.786Z,102166.03
2022-10-29T04:19:47.263Z,102160.88
2022-10-29T04:28:41.898Z,102158.41
2022-10-29T04:30:33.146Z,102160.16
2022-10-29T04:33:00.561Z,102162.81
2022-10-29T04:35:28.555Z,102156.75
2022-10-29T04:37:55.564Z,102151.53
2022-10-29T04:40:23.664Z,102149.75
2022-10-29T04:42:50.212Z,102149.75
2022-10-29T04:45:17.166Z,102155.91
2022-10-29T04:47:43.577Z,102159.44
2022-10-29T04:50:10.006Z,102151.66
2022-10-29T04:52:36.495Z,102147.34
2022-10-29T04:55:03.028Z,102145.66
2022-10-29T04:57:29.438Z,102146.50
2022-10-29T04:59:55.873Z,102136.09
2022-10-29T05:02:22.282Z,102132.63
2022-10-29T05:04:48.685Z,102130.09
2022-10-29T05:07:15.075Z,102136.22
2022-10-29T05:09:41.501Z,102129.31
2022-10-29T05:12:08.383Z,102130.22
2022-10-29T05:14:34.790Z,102135.50
2022-10-29T05:17:01.286Z,102132.88
2022-10-29T05:19:27.810Z,102127.72
2022-10-29T05:21:54.238Z,102125.97
2022-10-29T05:24:20.653Z,102115.53
2022-10-29T05:26:47.073Z,102109.38
2022-10-29T05:29:13.500Z,102105.00
2022-10-29T05:31:39.900Z,102102.34
2022-10-29T05:34:06.382Z,102101.41
2022-10-29T05:36:32.765Z,102113.63
2022-10-29T05:38:59.282Z,102110.09
2022-10-29T05:41:25.716Z,102108.41
2022-10-29T05:43:52.256Z,102105.66
2022-10-29T05:46:19.790Z,102109.97
2022-10-29T05:48:46.328Z,102105.47
2022-10-29T05:51:12.759Z,102109.81
2022-10-29T05:53:39.221Z,102114.94
2022-10-29T05:56:06.194Z,102110.53
2022-10-29T05:58:32.648Z,102108.81
2022-10-29T06:00:59.070Z,102100.00
2022-10-29T06:03:25.571Z,102106.06
2022-10-29T06:05:52.025Z,102105.94
2022-10-29T06:08:18.991Z,102103.31
2022-10-29T06:10:45.505Z,102094.56
2022-10-29T06:13:14.089Z,102098.91
2022-10-29T06:15:41.034Z,102105.81
2022-10-29T06:18:08.003Z,102107.50
2022-10-29T06:20:35.084Z,102106.59
2022-10-29T06:23:01.719Z,102104.88
2022-10-29T06:25:28.334Z,102107.50
2022-10-29T06:28:02.264Z,102102.22
2022-10-29T06:30:30.192Z,102105.75
2022-10-29T06:32:56.895Z,102102.22
2022-10-29T06:35:23.900Z,102097.00
2022-10-29T06:37:50.365Z,102097.94
2022-10-29T06:40:17.119Z,102096.06
2022-10-29T06:42:43.556Z,102104.75
2022-10-29T06:45:10.574Z,102102.94
2022-10-29T06:47:41.048Z,102096.78
2022-10-29T06:50:08.866Z,102095.91
2022-10-29T06:52:36.381Z,102093.22
2022-10-29T06:55:03.692Z,102087.00
2022-10-29T06:57:30.256Z,102081.69
2022-10-29T06:59:56.974Z,102079.81
2022-10-29T07:02:24.199Z,102069.22
2022-10-29T07:04:50.953Z,102070.78
2022-10-29T07:07:17.454Z,102071.50
2022-10-29T07:09:44.038Z,102074.84
2022-10-29T07:12:10.600Z,102065.94
2022-10-29T07:14:37.319Z,102070.25
2022-10-29T07:17:03.780Z,102077.13
2022-10-29T07:19:30.181Z,102069.16
2022-10-29T07:21:56.586Z,102082.94
2022-10-29T07:24:23.087Z,102075.84
2022-10-29T07:26:49.553Z,102072.13
2022-10-29T07:29:16.193Z,102077.13
2022-10-29T07:31:42.611Z,102076.03
2022-10-29T07:34:09.221Z,102079.34
2022-10-29T07:36:36.136Z,102075.63
2022-10-29T07:39:03.889Z,102071.88
2022-10-29T07:41:30.343Z,102068.06
2022-10-29T07:43:56.850Z,102059.97
2022-10-29T07:46:23.391Z,102067.50
2022-10-29T07:48:49.971Z,102077.69
2022-10-29T07:51:16.497Z,102077.28
2022-10-29T07:53:43.032Z,102075.13
2022-10-29T07:56:09.452Z,102078.31
2022-10-29T07:58:36.515Z,102081.56
2022-10-29T08:01:03.419Z,102083.06
2022-10-29T08:03:29.851Z,102078.28
2022-10-29T08:05:59.186Z,102065.50
2022-10-29T08:08:26.365Z,102063.22
2022-10-29T08:10:52.854Z,102062.72
2022-10-29T08:13:19.339Z,102065.81
2022-10-29T08:15:47.049Z,102057.81
2022-10-29T08:18:16.227Z,102056.56
2022-10-29T08:20:42.914Z,102049.50
2022-10-29T08:23:09.609Z,102039.53
2022-10-29T08:25:41.246Z,102051.25
2022-10-29T08:28:10.273Z,102046.47
2022-10-29T08:30:37.495Z,102041.75
2022-10-29T08:33:04.700Z,102042.19
2022-10-29T08:35:32.326Z,102044.63
2022-10-29T08:37:58.875Z,102050.34
2022-10-29T08:40:53.903Z,102056.69
2022-10-29T08:43:32.470Z,102049.94
2022-10-29T08:46:00.441Z,102044.94
2022-10-29T08:48:41.866Z,102044.19
2022-10-29T08:51:23.464Z,102047.81
2022-10-29T08:54:10.433Z,102046.13
2022-10-29T08:56:42.143Z,102037.75
2022-10-29T08:59:17.383Z,102037.22
2022-10-29T09:01:44.617Z,102049.00
2022-10-29T09:04:32.538Z,102048.72
2022-10-29T09:07:07.763Z,102057.94
2022-10-29T09:09:49.459Z,102058.69
2022-10-29T09:12:24.996Z,102058.59
2022-10-29T09:15:09.430Z,102055.06
2022-10-29T09:17:49.436Z,102056.63
2022-10-29T09:20:26.565Z,102068.00
2022-10-29T09:23:17.021Z,102055.78
2022-10-29T09:25:53.928Z,102050.47
2022-10-29T09:28:33.398Z,102034.59
2022-10-29T09:31:24.181Z,102028.31
2022-10-29T09:33:55.353Z,102015.91
2022-10-29T09:36:24.918Z,102018.34
2022-10-29T09:38:59.038Z,102016.59
2022-10-29T09:41:29.085Z,102016.31
2022-10-29T09:44:07.364Z,102012.66
2022-10-29T09:47:09.988Z,102019.50
2022-10-29T09:50:08.801Z,102001.75
2022-10-29T09:52:39.253Z,101997.25
2022-10-29T09:55:07.558Z,101994.53
2022-10-29T09:57:36.895Z,101994.31
2022-10-29T10:00:25.431Z,101988.16
2022-10-29T10:03:04.607Z,101978.38
2022-10-29T10:05:34.537Z,101964.28
2022-10-29T10:08:13.019Z,101937.16
2022-10-29T10:10:52.454Z,101951.88
2022-10-29T10:13:26.078Z,101953.41
2022-10-29T10:15:56.058Z,101954.91
2022-10-29T10:18:38.145Z,101955.34
2022-10-29T10:21:06.626Z,101956.75
2022-10-29T10:23:47.481Z,101962.47
2022-10-29T10:26:27.726Z,101979.50
2022-10-29T10:29:15.721Z,101980.63
2022-10-29T10:31:46.931Z,101989.94
2022-10-29T10:34:21.936Z,101967.41
2022-10-29T10:36:57.100Z,101966.94
2022-10-29T10:40:03.138Z,101967.59
2022-10-29T10:42:37.075Z,101953.09
2022-10-29T10:45:16.051Z,101959.31
2022-10-29T10:47:57.637Z,101953.78
2022-10-29T10:50:32.713Z,101959.56
2022-10-29T10:53:02.872Z,101960.13
2022-10-29T10:55:37.908Z,101950.94
2022-10-29T10:58:27.396Z,101944.56
2022-10-29T11:00:59.976Z,101936.22
2022-10-29T11:03:41.158Z,101928.72
2022-10-29T11:06:16.551Z,101932.69
2022-10-29T11:09:06.265Z,101926.16
2022-10-29T11:11:38.532Z,101915.31
2022-10-29T11:14:13.081Z,101915.50
2022-10-29T11:16:47.196Z,101921.31
2022-10-29T11:19:24.732Z,101931.44
2022-10-29T11:22:12.809Z,101927.31
2022-10-29T11:24:47.372Z,101939.44
2022-10-29T11:27:32.580Z,101932.03
2022-10-29T11:30:09.810Z,101935.59
2022-10-29T11:33:01.332Z,101933.72
2022-10-29T11:35:45.843Z,101935.19
2022-10-29T11:38:23.486Z,101928.31
2022-10-29T11:40:58.884Z,101925.81
2022-10-29T11:43:25.417Z,101910.81
2022-10-29T11:46:17.941Z,101907.31
2022-10-29T11:49:03.601Z,101894.84
2022-10-29T11:51:51.981Z,101897.59
2022-10-29T11:54:41.756Z,101889.56
2022-10-29T11:57:29.695Z,101895.47
2022-10-29T12:00:21.243Z,101886.16
2022-10-29T12:03:17.383Z,101889.97
2022-10-29T12:05:58.246Z,101877.66
2022-10-29T12:09:01.675Z,101877.72
2022-10-29T12:11:55.692Z,101875.75
2022-10-29T12:14:47.301Z,101874.31
2022-10-29T12:17:25.208Z,101879.75
2022-10-29T12:23:15.084Z,101871.91
2022-10-29T12:26:07.204Z,101865.56
2022-10-29T12:28:39.649Z,101865.34
2022-10-29T12:31:51.758Z,101853.94
2022-10-29T12:34:28.799Z,101849.84
2022-10-29T12:37:10.219Z,101845.78
2022-10-29T12:39:46.879Z,101854.09
2022-10-29T12:42:24.080Z,101855.03
2022-10-29T12:45:25.642Z,101849.59
2022-10-29T12:48:22.903Z,101842.25
2022-10-29T12:51:03.574Z,101842.38
2022-10-29T12:53:57.940Z,101841.06
2022-10-29T12:56:25.293Z,101838.91
2022-10-29T12:58:57.168Z,101841.66
2022-10-29T13:01:50.107Z,101833.63
2022-10-29T13:04:25.078Z,101824.34
2022-10-29T13:07:05.280Z,101815.97
2022-10-29T13:09:36.150Z,101822.69
2022-10-29T13:12:11.672Z,101818.84
2022-10-29T13:14:43.268Z,101809.84
2022-10-29T13:17:30.964Z,101812.97
2022-10-29T13:20:21.580Z,101812.47
2022-10-29T13:22:55.442Z,101813.34
2022-10-29T13:25:37.292Z,101812.22
2022-10-29T13:28:09.909Z,101813.31
2022-10-29T13:30:37.775Z,101803.34
2022-10-29T13:33:26.115Z,101794.44
2022-10-29T13:36:00.605Z,101798.16
2022-10-29T13:38:36.230Z,101792.88
2022-10-29T13:41:23.849Z,101786.25
2022-10-29T13:44:10.250Z,101786.75
2022-10-29T13:47:01.145Z,101789.50
2022-10-29T13:49:38.239Z,101782.66
2022-10-29T13:52:13.794Z,101777.50
2022-10-29T13:54:40.181Z,101778.81
2022-10-29T13:57:12.651Z,101781.69
2022-10-29T13:59:48.847Z,101782.44
2022-10-29T14:02:39.022Z,101770.88
2022-10-29T14:05:12.680Z,101765.59
2022-10-29T14:08:11.832Z,101763.19
2022-10-29T14:10:41.245Z,101757.06
2022-10-29T14:13:24.851Z,101762.34
2022-10-29T14:16:00.482Z,101761.66
2022-10-29T14:18:27.999Z,101760.81
2022-10-29T14:20:59.374Z,101764.53
2022-10-29T14:23:26.666Z,101765.47
2022-10-29T14:25:55.425Z,101768.25
2022-10-29T14:28:27.396Z,101768.38
2022-10-29T14:31:02.729Z,101762.38
2022-10-29T14:33:32.966Z,101773.91
2022-10-29T14:36:05.746Z,101764.41
2022-10-29T14:38:57.956Z,101771.63
2022-10-29T14:41:26.204Z,101768.97
2022-10-29T14:44:07.342Z,101768.97
2022-10-29T14:46:36.037Z,101769.94
2022-10-29T14:49:15.318Z,101763.69
2022-10-29T14:51:54.050Z,101764.66
2022-10-29T14:54:25.544Z,101766.56
2022-10-29T14:57:22.977Z,101766.81
2022-10-29T15:00:08.348Z,101753.72
2022-10-29T15:02:42.741Z,101756.47
2022-10-29T15:05:28.021Z,101757.63
2022-10-29T15:08:10.250Z,101753.47
2022-10-29T15:10:47.519Z,101760.66
2022-10-29T15:13:22.037Z,101754.78
2022-10-29T15:15:55.262Z,101754.03
2022-10-29T15:18:23.366Z,101759.44
2022-10-29T15:20:51.562Z,101752.59
2022-10-29T15:23:34.255Z,101757.16
2022-10-29T15:26:04.365Z,101742.50
2022-10-29T15:28:43.144Z,101743.56
2022-10-29T15:31:46.412Z,101743.09
2022-10-29T15:34:29.307Z,101744.31
2022-10-29T15:37:00.167Z,101739.25
2022-10-29T15:40:00.165Z,101730.00
2022-10-29T15:42:28.622Z,101730.22
2022-10-29T15:45:07.321Z,101723.50
2022-10-29T15:47:39.049Z,101724.69
2022-10-29T15:50:09.757Z,101724.94
2022-10-29T15:52:43.432Z,101723.34
2022-10-29T15:55:27.020Z,101727.91
2022-10-29T15:57:56.752Z,101713.25
2022-10-29T16:00:23.876Z,101714.31
2022-10-29T16:02:51.249Z,101720.69
2022-10-29T16:05:18.493Z,101709.41
2022-10-29T16:07:46.485Z,101712.19
2022-10-29T16:10:16.238Z,101708.06
2022-10-29T16:12:43.173Z,101700.41
2022-10-29T16:15:14.143Z,101698.69
2022-10-29T16:17:40.795Z,101694.63
2022-10-29T16:20:08.028Z,101682.38
2022-10-29T16:22:34.459Z,101678.13
2022-10-29T16:25:00.882Z,101674.75
2022-10-29T16:27:27.321Z,101680.88
2022-10-29T16:29:53.760Z,101672.34
2022-10-29T16:32:23.252Z,101674.28
2022-10-29T16:34:50.252Z,101679.78
2022-10-29T16:37:18.551Z,101673.06
2022-10-29T16:39:45.308Z,101673.41
2022-10-29T16:42:33.664Z,101666.66
2022-10-29T16:45:00.310Z,101663.41
2022-10-29T16:47:27.461Z,101661.84
2022-10-29T16:49:54.201Z,101661.97
2022-10-29T16:52:22.478Z,101667.47
2022-10-29T16:54:50.542Z,101664.84
2022-10-29T16:57:17.012Z,101664.94
2022-10-29T16:59:43.472Z,101660.75
2022-10-29T17:02:11.610Z,101659.19
2022-10-29T17:04:38.224Z,101665.50
2022-10-29T17:07:04.644Z,101662.16
2022-10-29T17:09:31.241Z,101670.19
2022-10-29T17:11:57.720Z,101664.28
2022-10-29T17:14:24.669Z,101670.41
2022-10-29T17:16:51.102Z,101660.81
2022-10-29T17:19:17.673Z,101674.97
2022-10-29T17:21:44.151Z,101671.59
2022-10-29T17:24:10.593Z,101671.69
2022-10-29T17:26:37.030Z,101673.47
2022-10-29T17:29:03.499Z,101671.94
2022-10-29T17:31:29.941Z,101673.69
2022-10-29T17:33:56.325Z,101679.84
2022-10-29T17:36:22.759Z,101687.03
2022-10-29T17:38:49.245Z,101684.47
2022-10-29T17:41:15.687Z,101675.94
2022-10-29T17:43:42.157Z,101677.75
2022-10-29T17:46:08.633Z,101677.03
2022-10-29T17:48:35.174Z,101672.81
2022-10-29T17:51:03.074Z,101671.25
2022-10-29T17:53:30.907Z,101682.75
2022-10-29T17:55:59.286Z,101679.38
2022-10-29T17:58:26.068Z,101684.66
2022-10-29T18:00:52.973Z,101673.47
2022-10-29T18:03:19.496Z,101684.88
2022-10-29T18:05:45.969Z,101679.81
2022-10-29T18:08:12.390Z,101692.28
2022-10-29T18:10:38.912Z,101699.44
2022-10-29T18:13:05.437Z,101704.00
2022-10-29T18:15:31.838Z,101710.13
2022-10-29T18:17:59.582Z,101719.91
2022-10-29T18:20:26.077Z,101721.84
2022-10-29T18:22:55.990Z,101717.50
2022-10-29T18:25:22.732Z,101715.03
2022-10-29T18:27:49.263Z,101711.78
2022-10-29T18:30:16.195Z,101708.44
2022-10-29T18:32:42.721Z,101710.31
2022-10-29T18:35:09.851Z,101711.38
2022-10-29T18:37:36.423Z,101710.88
2022-10-29T18:40:02.976Z,101714.44
2022-10-29T18:42:30.381Z,101711.16
2022-10-29T18:44:57.148Z,101709.84
2022-10-29T18:47:23.559Z,101715.41
2022-10-29T18:49:49.991Z,101710.47
2022-10-29T18:52:16.438Z,101717.75
2022-10-29T18:54:42.879Z,101713.53
2022-10-29T18:57:09.447Z,101708.47
2022-10-29T18:59:35.845Z,101710.47
2022-10-29T19:02:02.399Z,101711.50
2022-10-29T19:04:28.956Z,101704.69
2022-10-29T19:06:55.501Z,101696.16
2022-10-29T19:09:21.989Z,101689.41
2022-10-29T19:11:53.925Z,101686.13
2022-10-29T19:14:23.281Z,101686.25
2022-10-29T19:16:49.747Z,101692.56
2022-10-29T19:19:21.207Z,101690.13
2022-10-29T19:21:50.327Z,101683.50
2022-10-29T19:24:17.082Z,101693.59
2022-10-29T19:26:43.737Z,101698.34
2022-10-29T19:29:10.314Z,101708.44
2022-10-29T19:31:37.032Z,101711.44
2022-10-29T19:34:06.317Z,101703.88
2022-10-29T19:36:34.601Z,101698.81
2022-10-29T19:39:01.283Z,101702.47
2022-10-29T19:41:28.266Z,101701.84
2022-10-29T19:43:58.958Z,101704.59
2022-10-29T19:46:25.472Z,101705.50
2022-10-29T19:48:54.196Z,101714.38
2022-10-29T19:51:21.493Z,101715.41
2022-10-29T19:53:48.708Z,101708.47
2022-10-29T19:56:16.207Z,101716.56
2022-10-29T19:58:44.008Z,101711.41
2022-10-29T20:01:18.382Z,101723.03
2022-10-29T20:03:45.528Z,101717.25
2022-10-29T20:06:13.046Z,101725.22
2022-10-29T20:08:39.609Z,101727.84
2022-10-29T20:11:06.683Z,101727.03
2022-10-29T20:13:33.527Z,101727.97
2022-10-29T20:16:01.339Z,101726.94
2022-10-29T20:18:28.106Z,101732.00
2022-10-29T20:20:58.221Z,101721.38
2022-10-29T20:23:28.180Z,101728.41
2022-10-29T20:25:54.607Z,101740.72
2022-10-29T20:28:21.314Z,101729.38
2022-10-29T20:30:47.797Z,101727.47
2022-10-29T20:33:14.217Z,101727.38
2022-10-29T20:35:41.339Z,101730.00
2022-10-29T20:38:07.965Z,101723.88
2022-10-29T20:40:34.417Z,101728.22
2022-10-29T20:43:00.944Z,101733.28
2022-10-29T20:45:27.473Z,101732.34
2022-10-29T20:47:54.058Z,101737.59
2022-10-29T20:50:20.595Z,101735.72
2022-10-29T20:52:49.055Z,101733.94
2022-10-29T20:55:20.887Z,101730.22
2022-10-29T20:57:47.376Z,101738.13
2022-10-29T21:00:14.340Z,101739.00
2022-10-29T21:02:40.793Z,101737.19
2022-10-29T21:05:07.641Z,101734.66
2022-10-29T21:07:34.327Z,101738.22
2022-10-29T21:10:00.719Z,101740.09
2022-10-29T21:12:27.154Z,101740.34
2022-10-29T21:14:53.569Z,101746.63
2022-10-29T21:17:22.052Z,101739.91
2022-10-29T21:19:48.541Z,101750.59
2022-10-29T21:22:18.712Z,101747.34
2022-10-29T21:24:45.890Z,101750.16
2022-10-29T21:27:12.439Z,101746.78
2022-10-29T21:29:38.995Z,101751.47
2022-10-29T21:32:05.634Z,101756.84
2022-10-29T21:34:32.071Z,101758.94
2022-10-29T21:36:58.519Z,101757.41
2022-10-29T21:39:26.331Z,101760.34
2022-10-29T21:41:52.780Z,101750.13
2022-10-29T21:44:19.210Z,101748.72
2022-10-29T21:46:45.614Z,101753.34
2022-10-29T21:49:12.004Z,101745.63
2022-10-29T21:51:38.474Z,101751.28
2022-10-29T21:54:04.983Z,101761.97
2022-10-29T21:56:31.410Z,101763.13
2022-10-29T21:58:57.918Z,101765.09
2022-10-29T22:01:24.419Z,101761.88
2022-10-29T22:03:51.015Z,101769.03
2022-10-29T22:06:20.280Z,101758.75
2022-10-29T22:08:47.854Z,101765.91
2022-10-29T22:11:16.905Z,101769.75
2022-10-29T22:13:43.372Z,101766.47
2022-10-29T22:16:10.625Z,101767.59
2022-10-29T22:18:37.380Z,101767.94
2022-10-29T22:21:20.491Z,101774.41
2022-10-29T22:23:52.319Z,101777.13
2022-10-29T22:26:21.322Z,101770.28
2022-10-29T22:28:48.201Z,101773.00
2022-10-29T22:31:16.095Z,101770.56
2022-10-29T22:33:43.658Z,101772.53
2022-10-29T22:36:13.055Z,101771.00
2022-10-29T22:38:39.971Z,101771.09
2022-10-29T22:41:17.510Z,101780.00
2022-10-29T22:43:44.636Z,101780.19
2022-10-29T22:46:13.249Z,101777.66
2022-10-29T22:48:39.990Z,101781.22
2022-10-29T22:51:10.443Z,101784.03
2022-10-29T22:53:37.002Z,101784.22
2022-10-29T22:56:04.297Z,101784.56
2022-10-29T22:58:30.745Z,101788.31
2022-10-29T23:01:11.658Z,101787.81
2022-10-29T23:03:39.827Z,101781.91
2022-10-29T23:06:08.138Z,101790.84
2022-10-29T23:08:35.207Z,101789.28
2022-10-29T23:11:06.932Z,101783.34
2022-10-29T23:13:33.616Z,101801.88
2022-10-29T23:16:00.409Z,101792.47
2022-10-29T23:18:26.817Z,101792.59
2022-10-29T23:21:00.943Z,101792.75
2022-10-29T23:23:28.087Z,101790.28
2022-10-29T23:25:57.886Z,101803.59
2022-10-29T23:28:24.552Z,101788.84
2022-10-29T23:30:58.149Z,101801.19
2022-10-29T23:33:24.659Z,101793.56
2022-10-29T23:35:51.382Z,101800.69
2022-10-29T23:38:17.846Z,101798.34
2022-10-29T23:40:45.570Z,101799.41
2022-10-29T23:43:12.781Z,101800.44
2022-10-29T23:45:40.800Z,101797.13
2022-10-29T23:48:08.494Z,101799.84
2022-10-29T23:50:35.934Z,101797.31
2022-10-29T23:53:02.365Z,101807.09
2022-10-29T23:55:28.948Z,101805.34
2022-10-29T23:57:55.661Z,101808.03
